createdAt,value
2022-09-28T00:00:24.640Z,78714.31
2022-09-28T00:02:54.268Z,78715.13
2022-09-28T00:05:23.354Z,78705.31
2022-09-28T00:07:52.181Z,78707.56
2022-09-28T00:10:24.027Z,78717.44
2022-09-28T00:12:56.348Z,78705.91
2022-09-28T00:15:25.858Z,78709.38
2022-09-28T00:17:54.663Z,78720.44
2022-09-28T00:20:23.655Z,78710.44
2022-09-28T00:22:52.251Z,78710.97
2022-09-28T00:25:22.864Z,78715.59
2022-09-28T00:27:52.584Z,78716.75
2022-09-28T00:30:21.246Z,78715.53
2022-09-28T00:32:50.030Z,78705.72
2022-09-28T00:35:18.720Z,78725.69
2022-09-28T00:37:50.266Z,78726.91
2022-09-28T00:40:19.544Z,78701.53
2022-09-28T00:42:48.263Z,78713.16
2022-09-28T00:45:17.078Z,78723.72
2022-09-28T00:47:50.982Z,78725.03
2022-09-28T00:50:27.582Z,78715.13
2022-09-28T00:52:56.378Z,78728.94
2022-09-28T00:55:40.037Z,78730.31
2022-09-28T00:58:12.803Z,78730.38
2022-09-28T01:00:42.313Z,78714.81
2022-09-28T01:03:12.080Z,78736.28
2022-09-28T01:05:41.893Z,78723.53
2022-09-28T01:08:12.320Z,78736.72
2022-09-28T01:10:44.692Z,78714.72
2022-09-28T01:13:16.058Z,78726.97
2022-09-28T01:16:25.703Z,78732.31
2022-09-28T01:19:01.155Z,78724.88
2022-09-28T01:21:42.721Z,78723.16
2022-09-28T01:24:48.088Z,78747.00
2022-09-28T01:27:43.937Z,78742.19
2022-09-28T01:30:19.470Z,78752.72
2022-09-28T01:32:54.444Z,78756.28
2022-09-28T01:35:34.386Z,78764.06
2022-09-28T01:38:14.880Z,78764.00
2022-09-28T01:40:44.753Z,78752.94
2022-09-28T01:43:21.161Z,78770.47
2022-09-28T01:45:58.428Z,78767.59
2022-09-28T01:48:44.881Z,78769.03
2022-09-28T01:51:31.857Z,78753.91
2022-09-28T01:54:08.502Z,78768.59
2022-09-28T01:56:48.590Z,78776.50
2022-09-28T01:59:22.687Z,78767.72
2022-09-28T02:01:59.731Z,78767.53
2022-09-28T02:04:37.604Z,78768.19
2022-09-28T02:07:16.756Z,78780.13
2022-09-28T02:10:02.311Z,78764.03
2022-09-28T02:12:37.066Z,78769.22
2022-09-28T02:15:28.604Z,78778.00
2022-09-28T02:17:58.274Z,78761.09
2022-09-28T02:20:28.776Z,78783.88
2022-09-28T02:22:59.493Z,78794.09
2022-09-28T02:25:35.823Z,78789.03
2022-09-28T02:28:12.203Z,78776.22
2022-09-28T02:30:43.570Z,78796.88
2022-09-28T02:33:41.928Z,78784.75
2022-09-28T02:36:12.051Z,78791.75
2022-09-28T02:38:40.858Z,78782.25
2022-09-28T02:41:24.385Z,78789.03
2022-09-28T02:44:23.795Z,78793.16
2022-09-28T02:47:01.635Z,78804.47
2022-09-28T02:49:50.983Z,78800.13
2022-09-28T02:52:34.332Z,78802.59
2022-09-28T02:55:06.715Z,78814.88
2022-09-28T02:57:49.329Z,78815.41
2022-09-28T03:00:24.025Z,78807.16
2022-09-28T03:03:11.587Z,78818.59
2022-09-28T03:06:22.000Z,78810.38
2022-09-28T03:09:00.871Z,78815.81
2022-09-28T03:11:44.731Z,78810.38
2022-09-28T03:14:14.286Z,78806.94
2022-09-28T03:16:52.741Z,78825.41
2022-09-28T03:19:26.468Z,78823.81
2022-09-28T03:21:56.633Z,78830.94
2022-09-28T03:24:25.613Z,78832.69
2022-09-28T03:26:54.536Z,78816.63
2022-09-28T03:29:24.398Z,78828.34
2022-09-28T03:31:59.577Z,78828.16
2022-09-28T03:34:28.667Z,78824.50
2022-09-28T03:36:59.232Z,78811.75
2022-09-28T03:39:28.535Z,78832.19
2022-09-28T03:41:57.215Z,78824.34
2022-09-28T03:44:26.282Z,78810.22
2022-09-28T03:46:55.713Z,78830.88
2022-09-28T03:49:24.874Z,78837.72
2022-09-28T03:51:53.557Z,78839.13
2022-09-28T03:54:22.434Z,78836.97
2022-09-28T03:56:51.691Z,78839.56
2022-09-28T03:59:20.816Z,78858.31
2022-09-28T04:01:53.375Z,78853.69
2022-09-28T04:04:23.314Z,78850.88
2022-09-28T04:06:52.106Z,78838.59
2022-09-28T04:09:20.949Z,78857.50
2022-09-28T04:12:03.346Z,78860.75
2022-09-28T04:14:34.838Z,78854.75
2022-09-28T04:17:05.530Z,78862.09
2022-09-28T04:19:34.749Z,78866.81
2022-09-28T04:22:24.280Z,78859.78
2022-09-28T04:24:53.127Z,78849.88
2022-09-28T04:27:40.076Z,78871.97
2022-09-28T04:30:10.406Z,78857.47
2022-09-28T04:32:41.251Z,78871.81
2022-09-28T04:35:13.240Z,78875.22
2022-09-28T04:37:42.490Z,78882.16
2022-09-28T04:40:11.450Z,78876.47
2022-09-28T04:42:40.313Z,78854.00
2022-09-28T04:45:09.573Z,78875.16
2022-09-28T04:47:43.435Z,78878.59
2022-09-28T04:50:44.628Z,78865.06
2022-09-28T04:53:19.510Z,78887.06
2022-09-28T04:56:03.061Z,78872.56
2022-09-28T04:58:33.032Z,78862.59
2022-09-28T05:01:07.356Z,78881.41
2022-09-28T05:03:55.033Z,78874.69
2022-09-28T05:06:42.107Z,78873.84
2022-09-28T05:09:11.793Z,78875.88
2022-09-28T05:11:40.425Z,78879.44
2022-09-28T05:14:15.553Z,78879.28
2022-09-28T05:16:45.909Z,78878.97
2022-09-28T05:19:37.355Z,78863.00
2022-09-28T05:22:08.273Z,78889.78
2022-09-28T05:24:41.416Z,78895.22
2022-09-28T05:27:11.426Z,78872.13
2022-09-28T05:29:40.229Z,78879.09
2022-09-28T05:32:45.553Z,78870.50
2022-09-28T05:35:30.527Z,78869.66
2022-09-28T05:38:05.840Z,78867.56
2022-09-28T05:40:35.455Z,78878.22
2022-09-28T05:43:04.924Z,78877.91
2022-09-28T05:45:35.034Z,78887.94
2022-09-28T05:48:05.610Z,78864.59
2022-09-28T05:50:34.405Z,78881.50
2022-09-28T05:53:08.595Z,78886.66
2022-09-28T05:55:39.272Z,78866.75
2022-09-28T05:58:09.247Z,78880.13
2022-09-28T06:00:38.787Z,78887.03
2022-09-28T06:03:11.647Z,78886.75
2022-09-28T06:05:41.978Z,78888.19
2022-09-28T06:08:11.747Z,78871.69
2022-09-28T06:10:45.285Z,78865.69
2022-09-28T06:13:15.233Z,78867.78
2022-09-28T06:15:45.814Z,78868.84
2022-09-28T06:18:16.429Z,78861.13
2022-09-28T06:21:06.876Z,78866.19
2022-09-28T06:23:40.474Z,78864.91
2022-09-28T06:26:09.884Z,78852.91
2022-09-28T06:28:38.973Z,78870.00
2022-09-28T06:31:08.276Z,78868.41
2022-09-28T06:33:44.613Z,78866.94
2022-09-28T06:36:14.375Z,78866.28
2022-09-28T06:38:43.602Z,78853.16
2022-09-28T06:41:13.155Z,78853.13
2022-09-28T06:43:43.201Z,78856.97
2022-09-28T06:46:15.163Z,78857.78
2022-09-28T06:48:53.470Z,78863.44
2022-09-28T06:51:41.965Z,78860.41
2022-09-28T06:54:26.511Z,78850.97
2022-09-28T06:57:13.355Z,78857.16
2022-09-28T06:59:43.387Z,78837.38
2022-09-28T07:02:16.066Z,78846.53
2022-09-28T07:04:50.483Z,78849.91
2022-09-28T07:08:00.512Z,78844.34
2022-09-28T07:10:49.555Z,78848.25
2022-09-28T07:13:48.468Z,78840.66
2022-09-28T07:16:25.776Z,78840.66
2022-09-28T07:18:56.631Z,78836.19
2022-09-28T07:21:30.137Z,78831.53
2022-09-28T07:24:05.872Z,78827.41
2022-09-28T07:26:57.793Z,78836.09
2022-09-28T07:29:56.025Z,78829.00
2022-09-28T07:32:38.353Z,78805.44
2022-09-28T07:35:23.194Z,78817.47
2022-09-28T07:38:02.416Z,78808.47
2022-09-28T07:40:52.612Z,78807.06
2022-09-28T07:43:23.300Z,78801.28
2022-09-28T07:45:55.792Z,78812.56
2022-09-28T07:48:26.195Z,78803.03
2022-09-28T07:51:22.127Z,78813.50
2022-09-28T07:54:11.051Z,78792.22
2022-09-28T07:56:47.375Z,78789.19
2022-09-28T07:59:29.099Z,78794.41
2022-09-28T08:02:15.891Z,78795.50
2022-09-28T08:04:45.406Z,78793.97
2022-09-28T08:07:20.425Z,78789.22
2022-09-28T08:09:56.438Z,78795.94
2022-09-28T08:12:28.456Z,78782.38
2022-09-28T08:15:30.672Z,78770.34
2022-09-28T08:18:12.613Z,78786.19
2022-09-28T08:20:59.866Z,78767.78
2022-09-28T08:23:29.591Z,78779.94
2022-09-28T08:25:59.094Z,78776.47
2022-09-28T08:28:28.181Z,78771.59
2022-09-28T08:31:02.748Z,78781.09
2022-09-28T08:33:31.801Z,78762.06
2022-09-28T08:36:35.316Z,78752.31
2022-09-28T08:39:04.786Z,78750.81
2022-09-28T08:42:13.795Z,78749.50
2022-09-28T08:45:12.454Z,78745.63
2022-09-28T08:48:37.966Z,78739.97
2022-09-28T08:51:40.774Z,78740.19
2022-09-28T08:54:51.213Z,78738.50
2022-09-28T08:57:32.163Z,78744.56
2022-09-28T09:00:06.124Z,78732.81
2022-09-28T09:02:40.625Z,78738.31
2022-09-28T09:05:23.149Z,78735.84
2022-09-28T09:08:27.959Z,78740.84
2022-09-28T09:11:08.910Z,78745.31
2022-09-28T09:13:48.675Z,78741.28
2022-09-28T09:16:33.771Z,78727.25
2022-09-28T09:19:42.869Z,78718.38
2022-09-28T09:23:00.609Z,78725.00
2022-09-28T09:25:41.455Z,78714.38
2022-09-28T09:28:30.210Z,78716.56
2022-09-28T09:31:21.911Z,78711.50
2022-09-28T09:34:15.099Z,78708.84
2022-09-28T09:37:15.061Z,78703.28
2022-09-28T09:40:25.732Z,78699.31
2022-09-28T09:43:18.572Z,78695.25
2022-09-28T09:46:30.796Z,78680.50
2022-09-28T09:49:26.181Z,78685.34
2022-09-28T09:51:54.900Z,78704.78
2022-09-28T09:54:47.796Z,78695.50
2022-09-28T09:57:36.886Z,78681.63
2022-09-28T10:00:18.920Z,78690.97
2022-09-28T10:03:03.947Z,78684.03
2022-09-28T10:05:45.264Z,78677.97
2022-09-28T10:08:19.416Z,78687.38
2022-09-28T10:11:09.687Z,78688.56
2022-09-28T10:13:42.305Z,78691.94
2022-09-28T10:16:34.278Z,78697.97
2022-09-28T10:19:06.924Z,78670.97
2022-09-28T10:21:54.896Z,78678.56
2022-09-28T10:24:37.043Z,78693.69
2022-09-28T10:27:19.397Z,78683.53
2022-09-28T10:29:56.487Z,78676.25
2022-09-28T10:32:28.234Z,78681.38
2022-09-28T10:35:15.697Z,78691.53
2022-09-28T10:38:11.768Z,78689.19
2022-09-28T10:40:56.831Z,78691.91
2022-09-28T10:43:41.034Z,78695.09
2022-09-28T10:46:24.385Z,78690.63
2022-09-28T10:49:19.911Z,78692.38
2022-09-28T10:51:57.550Z,78689.88
2022-09-28T10:54:35.909Z,78689.25
2022-09-28T10:57:04.939Z,78684.66
2022-09-28T10:59:48.577Z,78693.47
2022-09-28T11:02:43.901Z,78692.06
2022-09-28T11:05:25.645Z,78707.38
2022-09-28T11:07:59.214Z,78708.44
2022-09-28T11:10:35.792Z,78705.44
2022-09-28T11:13:24.247Z,78708.19
2022-09-28T11:16:02.863Z,78706.38
2022-09-28T11:18:36.087Z,78698.66
2022-09-28T11:21:33.059Z,78704.47
2022-09-28T11:24:10.066Z,78694.41
2022-09-28T11:26:50.728Z,78687.28
2022-09-28T11:29:32.252Z,78694.34
2022-09-28T11:32:23.036Z,78699.78
2022-09-28T11:35:21.781Z,78709.47
2022-09-28T11:38:29.226Z,78713.13
2022-09-28T11:41:29.072Z,78711.19
2022-09-28T11:44:42.205Z,78704.94
2022-09-28T11:47:35.691Z,78691.34
2022-09-28T11:50:31.747Z,78698.75
2022-09-28T11:53:15.524Z,78702.22
2022-09-28T11:56:09.042Z,78701.47
2022-09-28T11:59:04.977Z,78707.06
2022-09-28T12:01:46.673Z,78713.41
2022-09-28T12:04:40.280Z,78721.13
2022-09-28T12:07:16.089Z,78717.88
2022-09-28T12:09:57.234Z,78709.03
2022-09-28T12:13:02.982Z,78709.22
2022-09-28T12:16:17.178Z,78707.72
2022-09-28T12:18:52.496Z,78715.72
2022-09-28T12:21:54.514Z,78712.19
2022-09-28T12:24:29.238Z,78721.69
2022-09-28T12:27:35.290Z,78716.28
2022-09-28T12:30:23.540Z,78723.81
2022-09-28T12:33:22.072Z,78718.44
2022-09-28T12:36:33.459Z,78711.72
2022-09-28T12:39:56.374Z,78727.78
2022-09-28T12:42:40.123Z,78722.25
2022-09-28T12:46:06.696Z,78717.72
2022-09-28T12:49:03.056Z,78725.63
2022-09-28T12:52:02.598Z,78706.72
2022-09-28T12:54:59.107Z,78719.47
2022-09-28T12:58:05.056Z,78709.28
2022-09-28T13:00:41.733Z,78700.66
2022-09-28T13:03:46.477Z,78708.09
2022-09-28T13:06:43.896Z,78703.78
2022-09-28T13:09:29.828Z,78696.84
2022-09-28T13:12:17.378Z,78691.63
2022-09-28T13:15:19.121Z,78695.72
2022-09-28T13:18:08.898Z,78698.59
2022-09-28T13:20:45.693Z,78706.16
2022-09-28T13:23:20.412Z,78703.06
2022-09-28T13:26:18.787Z,78705.25
2022-09-28T13:28:51.164Z,78711.94
2022-09-28T13:31:29.260Z,78691.28
2022-09-28T13:34:04.941Z,78703.84
2022-09-28T13:36:33.761Z,78712.34
2022-09-28T13:39:02.551Z,78699.44
2022-09-28T13:41:36.890Z,78716.09
2022-09-28T13:44:14.912Z,78718.78
2022-09-28T13:47:12.121Z,78718.84
2022-09-28T13:49:57.401Z,78709.06
2022-09-28T13:53:07.894Z,78717.94
2022-09-28T13:55:58.434Z,78716.22
2022-09-28T13:58:37.048Z,78721.81
2022-09-28T14:01:13.178Z,78727.84
2022-09-28T14:04:17.719Z,78721.75
2022-09-28T14:06:55.778Z,78718.47
2022-09-28T14:09:28.869Z,78707.97
2022-09-28T14:12:02.848Z,78723.84
2022-09-28T14:14:49.372Z,78729.25
2022-09-28T14:17:26.803Z,78737.00
2022-09-28T14:20:06.435Z,78734.63
2022-09-28T14:22:54.681Z,78735.34
2022-09-28T14:25:26.392Z,78726.59
2022-09-28T14:28:20.155Z,78738.66
2022-09-28T14:30:57.095Z,78726.97
2022-09-28T14:33:29.749Z,78724.00
2022-09-28T14:36:06.201Z,78725.03
2022-09-28T14:39:13.631Z,78723.91
2022-09-28T14:41:45.635Z,78723.56
2022-09-28T14:44:19.746Z,78720.78
2022-09-28T14:46:49.761Z,78723.63
2022-09-28T14:49:21.390Z,78722.41
2022-09-28T14:51:56.837Z,78713.63
2022-09-28T14:54:46.146Z,78720.22
2022-09-28T14:57:24.447Z,78709.91
2022-09-28T14:59:53.311Z,78726.53
2022-09-28T15:02:26.713Z,78713.44
2022-09-28T15:05:11.991Z,78713.16
2022-09-28T15:07:50.776Z,78727.47
2022-09-28T15:10:27.962Z,78730.31
2022-09-28T15:12:58.146Z,78721.44
2022-09-28T15:15:31.385Z,78740.81
2022-09-28T15:18:26.474Z,78748.44
2022-09-28T15:20:56.942Z,78729.16
2022-09-28T15:23:43.025Z,78759.38
2022-09-28T15:26:33.226Z,78745.25
2022-09-28T15:29:05.954Z,78762.19
2022-09-28T15:32:14.395Z,78760.03
2022-09-28T15:34:54.990Z,78757.78
2022-09-28T15:37:40.402Z,78759.25
2022-09-28T15:40:17.282Z,78766.09
2022-09-28T15:42:47.014Z,78763.84
2022-09-28T15:45:15.660Z,78784.56
2022-09-28T15:47:45.809Z,78761.38
2022-09-28T15:50:31.295Z,78784.22
2022-09-28T15:53:04.210Z,78782.63
2022-09-28T15:55:37.894Z,78774.13
2022-09-28T15:58:21.411Z,78768.66
2022-09-28T16:00:52.611Z,78773.09
2022-09-28T16:03:32.260Z,78776.91
2022-09-28T16:06:04.577Z,78776.25
2022-09-28T16:08:47.137Z,78780.69
2022-09-28T16:11:29.339Z,78754.03
2022-09-28T16:14:07.638Z,78784.41
2022-09-28T16:16:47.185Z,78780.56
2022-09-28T16:19:26.582Z,78781.63
2022-09-28T16:22:00.762Z,78765.97
2022-09-28T16:24:33.491Z,78783.75
2022-09-28T16:27:03.481Z,78777.88
2022-09-28T16:29:42.006Z,78773.28
2022-09-28T16:32:48.823Z,78778.59
2022-09-28T16:35:19.981Z,78771.75
2022-09-28T16:38:00.177Z,78780.34
2022-09-28T16:40:29.815Z,78756.09
2022-09-28T16:43:05.605Z,78762.31
2022-09-28T16:45:37.796Z,78780.16
2022-09-28T16:48:07.020Z,78775.78
2022-09-28T16:50:35.664Z,78760.41
2022-09-28T16:53:36.570Z,78771.34
2022-09-28T16:56:08.542Z,78765.25
2022-09-28T16:58:39.978Z,78773.44
2022-09-28T17:01:13.848Z,78763.50
2022-09-28T17:03:47.581Z,78767.41
2022-09-28T17:06:20.259Z,78776.25
2022-09-28T17:08:49.292Z,78770.53
2022-09-28T17:11:24.537Z,78766.63
2022-09-28T17:13:59.863Z,78776.47
2022-09-28T17:16:57.661Z,78751.78
2022-09-28T17:19:24.457Z,78770.88
2022-09-28T17:21:54.595Z,78755.25
2022-09-28T17:24:23.351Z,78764.53
2022-09-28T17:26:53.533Z,78761.47
2022-09-28T17:29:23.392Z,78766.91
2022-09-28T17:31:52.117Z,78765.03
2022-09-28T17:34:21.717Z,78764.59
2022-09-28T17:36:50.417Z,78756.38
2022-09-28T17:39:21.125Z,78767.66
2022-09-28T17:41:50.131Z,78744.50
2022-09-28T17:44:20.512Z,78752.38
2022-09-28T17:46:51.658Z,78761.41
2022-09-28T17:49:20.756Z,78761.41
2022-09-28T17:51:51.039Z,78766.13
2022-09-28T17:54:22.140Z,78754.34
2022-09-28T17:56:51.297Z,78757.53
2022-09-28T17:59:20.414Z,78758.28
2022-09-28T18:01:49.435Z,78759.44
2022-09-28T18:04:47.188Z,78737.66
2022-09-28T18:07:07.985Z,78754.03
2022-09-28T18:09:36.558Z,78744.34
2022-09-28T18:12:06.792Z,78754.88
2022-09-28T18:14:37.073Z,78749.66
2022-09-28T18:17:05.976Z,78756.25
2022-09-28T18:19:34.634Z,78744.13
2022-09-28T18:22:03.608Z,78746.63
2022-09-28T18:24:33.292Z,78742.63
2022-09-28T18:27:02.234Z,78736.72
2022-09-28T18:29:33.326Z,78737.97
2022-09-28T18:32:05.714Z,78724.88
2022-09-28T18:34:38.058Z,78755.78
2022-09-28T18:37:07.215Z,78749.31
2022-09-28T18:39:37.343Z,78748.22
2022-09-28T18:42:07.172Z,78756.31
2022-09-28T18:44:36.193Z,78735.13
2022-09-28T18:47:04.920Z,78761.94
2022-09-28T18:49:34.553Z,78730.84
2022-09-28T18:52:03.556Z,78750.63
2022-09-28T18:54:32.412Z,78730.78
2022-09-28T18:57:01.195Z,78746.03
2022-09-28T18:59:32.897Z,78739.28
2022-09-28T19:02:02.599Z,78743.28
2022-09-28T19:04:32.002Z,78728.88
2022-09-28T19:07:01.189Z,78736.81
2022-09-28T19:09:29.983Z,78746.97
2022-09-28T19:11:59.112Z,78739.66
2022-09-28T19:14:28.629Z,78752.47
2022-09-28T19:16:57.483Z,78739.28
2022-09-28T19:19:26.168Z,78738.44
2022-09-28T19:21:55.074Z,78739.44
2022-09-28T19:24:23.884Z,78758.38
2022-09-28T19:26:54.519Z,78752.84
2022-09-28T19:29:23.582Z,78747.75
2022-09-28T19:31:53.119Z,78749.56
2022-09-28T19:34:25.192Z,78740.22
2022-09-28T19:36:55.345Z,78733.22
2022-09-28T19:39:24.800Z,78751.59
2022-09-28T19:41:53.896Z,78748.91
2022-09-28T19:44:28.347Z,78739.09
2022-09-28T19:46:59.515Z,78747.22
2022-09-28T19:49:30.712Z,78744.59
2022-09-28T19:52:16.152Z,78723.94
2022-09-28T19:54:58.975Z,78732.22
2022-09-28T19:57:32.650Z,78737.16
2022-09-28T20:00:03.908Z,78715.06
2022-09-28T20:02:36.320Z,78729.59
2022-09-28T20:05:05.607Z,78705.75
2022-09-28T20:07:35.640Z,78729.84
2022-09-28T20:10:04.986Z,78721.41
2022-09-28T20:12:33.919Z,78735.19
2022-09-28T20:15:06.068Z,78706.41
2022-09-28T20:17:37.366Z,78713.81
2022-09-28T20:20:06.290Z,78727.59
2022-09-28T20:22:35.424Z,78715.28
2022-09-28T20:25:04.609Z,78720.66
2022-09-28T20:27:33.303Z,78712.09
2022-09-28T20:30:02.207Z,78714.78
2022-09-28T20:32:36.060Z,78730.66
2022-09-28T20:35:05.827Z,78694.41
2022-09-28T20:37:34.968Z,78717.50
2022-09-28T20:40:03.818Z,78722.63
2022-09-28T20:42:32.868Z,78720.78
2022-09-28T20:45:01.664Z,78721.66
2022-09-28T20:47:30.412Z,78712.56
2022-09-28T20:49:59.602Z,78708.31
2022-09-28T20:52:28.423Z,78712.44
2022-09-28T20:54:57.250Z,78708.09
2022-09-28T20:57:26.020Z,78718.00
2022-09-28T20:59:55.003Z,78713.47
2022-09-28T21:02:23.893Z,78716.22
2022-09-28T21:04:52.914Z,78721.44
2022-09-28T21:07:21.523Z,78716.34
2022-09-28T21:09:51.418Z,78717.44
2022-09-28T21:12:20.173Z,78713.72
2022-09-28T21:14:48.985Z,78716.53
2022-09-28T21:17:17.641Z,78714.97
2022-09-28T21:19:46.805Z,78701.31
2022-09-28T21:22:15.573Z,78711.28
2022-09-28T21:24:44.500Z,78710.72
2022-09-28T21:27:13.085Z,78703.44
2022-09-28T21:29:41.932Z,78703.59
2022-09-28T21:32:10.892Z,78703.34
2022-09-28T21:34:39.783Z,78716.34
2022-09-28T21:37:08.406Z,78702.03
2022-09-28T21:39:37.271Z,78709.81
2022-09-28T21:42:06.051Z,78702.34
2022-09-28T21:44:35.386Z,78664.22
2022-09-28T21:47:04.141Z,78686.91
2022-09-28T21:49:32.995Z,78701.31
2022-09-28T21:52:02.927Z,78679.88
2022-09-28T21:54:31.813Z,78691.88
2022-09-28T21:57:02.004Z,78686.00
2022-09-28T21:59:31.242Z,78702.63
2022-09-28T22:01:59.966Z,78677.69
2022-09-28T22:04:28.997Z,78686.91
2022-09-28T22:06:57.717Z,78701.44
2022-09-28T22:09:28.683Z,78685.09
2022-09-28T22:11:57.745Z,78668.75
2022-09-28T22:14:28.206Z,78674.88
2022-09-28T22:16:57.219Z,78694.38
2022-09-28T22:19:25.763Z,78671.34
2022-09-28T22:21:54.693Z,78695.16
2022-09-28T22:24:23.352Z,78697.63
2022-09-28T22:26:52.098Z,78679.13
2022-09-28T22:29:22.536Z,78688.94
2022-09-28T22:31:51.666Z,78695.16
2022-09-28T22:34:22.148Z,78697.50
2022-09-28T22:36:51.060Z,78685.66
2022-09-28T22:39:19.604Z,78679.56
2022-09-28T22:41:48.890Z,78673.00
2022-09-28T22:44:17.589Z,78686.25
2022-09-28T22:46:47.120Z,78699.31
2022-09-28T22:49:15.938Z,78698.84
2022-09-28T22:51:45.984Z,78706.13
2022-09-28T22:54:17.692Z,78680.47
2022-09-28T22:56:46.473Z,78633.97
2022-09-28T22:59:15.271Z,78687.47
2022-09-28T23:01:44.270Z,78693.84
2022-09-28T23:04:12.952Z,78705.94
2022-09-28T23:06:42.149Z,78710.09
2022-09-28T23:09:10.839Z,78691.50
2022-09-28T23:11:41.251Z,78695.47
2022-09-28T23:14:12.739Z,78713.38
2022-09-28T23:16:42.120Z,78709.09
2022-09-28T23:19:10.898Z,78685.94
2022-09-28T23:21:40.575Z,78709.00
2022-09-28T23:24:12.046Z,78681.81
2022-09-28T23:26:40.967Z,78692.53
2022-09-28T23:29:12.656Z,78726.88
2022-09-28T23:31:41.546Z,78687.84
2022-09-28T23:34:11.826Z,78715.38
2022-09-28T23:36:41.098Z,78713.19
2022-09-28T23:39:12.621Z,78715.63
2022-09-28T23:41:41.753Z,78690.66
2022-09-28T23:44:10.467Z,78711.34
2022-09-28T23:46:39.664Z,78713.00
2022-09-28T23:49:08.443Z,78691.22
2022-09-28T23:51:37.296Z,78703.84
2022-09-28T23:54:07.521Z,78710.81
2022-09-28T23:56:36.858Z,78699.63
2022-09-28T23:59:06.156Z,78699.41
